Time;durP1;ratioP1;P1;durP2;ratioP2;P2;SDS_P1;SDS_P2;PMS_P1;PMS_P2;Temp;Humidity;BMP_temperature;BMP_pressure;BME280_temperature;BME280_humidity;BME280_pressure;Samples;Min_cycle;Max_cycle;Signal;HPM_P1;HPM_P2
2021/05/26 00:00:09;;;;;;;5.10;2.43;;;10.70;48.90;;;;;;5064774;28;20766;-67
2021/05/26 00:02:36;;;;;;;3.75;2.22;;;10.70;48.90;;;;;;5050172;28;20457;-68
2021/05/26 00:05:02;;;;;;;4.70;2.40;;;10.70;48.30;;;;;;5049728;28;20455;-69
2021/05/26 00:07:27;;;;;;;4.75;2.60;;;10.70;48.60;;;;;;5053373;28;20762;-72
2021/05/26 00:09:53;;;;;;;3.00;2.10;;;10.60;49.10;;;;;;5029690;28;20441;-70
2021/05/26 00:12:18;;;;;;;3.78;2.33;;;10.70;48.60;;;;;;5034428;28;20387;-71
2021/05/26 00:14:44;;;;;;;5.18;2.70;;;10.70;47.80;;;;;;5042923;28;20405;-70
2021/05/26 00:17:10;;;;;;;6.00;2.70;;;10.80;47.90;;;;;;5053773;28;20418;-70
2021/05/26 00:19:38;;;;;;;3.28;2.70;;;10.80;48.30;;;;;;5036332;28;20425;-69
2021/05/26 00:22:03;;;;;;;8.70;3.00;;;10.70;48.40;;;;;;5054196;28;20397;-69
2021/05/26 00:24:29;;;;;;;4.13;2.55;;;10.60;49.10;;;;;;5053960;28;20878;-69
2021/05/26 00:26:54;;;;;;;7.20;3.00;;;10.60;48.90;;;;;;5053803;28;20885;-70
2021/05/26 00:29:20;;;;;;;5.77;2.70;;;10.60;49.60;;;;;;5053778;28;20401;-69
2021/05/26 00:31:45;;;;;;;7.00;2.70;;;10.80;48.60;;;;;;5053979;28;20392;-69
2021/05/26 00:34:11;;;;;;;5.80;3.60;;;10.80;49.30;;;;;;5053843;28;20727;-69
2021/05/26 00:36:37;;;;;;;4.90;3.23;;;10.70;49.80;;;;;;5054056;28;20404;-69
2021/05/26 00:39:05;;;;;;;4.50;2.60;;;10.60;50.60;;;;;;5054061;28;20381;-69
2021/05/26 00:41:31;;;;;;;9.48;3.63;;;10.60;51.10;;;;;;5053393;28;20386;-69
2021/05/26 00:43:57;;;;;;;5.72;3.50;;;10.70;50.50;;;;;;5053352;28;20393;-69
2021/05/26 00:46:23;;;;;;;6.65;3.00;;;10.70;50.90;;;;;;5053730;28;20393;-69
2021/05/26 00:48:49;;;;;;;5.40;3.10;;;10.60;50.90;;;;;;5053839;28;20397;-69
2021/05/26 00:51:14;;;;;;;5.32;3.05;;;10.50;51.80;;;;;;5053622;28;20385;-69
2021/05/26 00:53:40;;;;;;;4.55;3.00;;;10.50;52.10;;;;;;5053284;28;20464;-69
2021/05/26 00:56:06;;;;;;;7.85;3.70;;;10.60;51.10;;;;;;5059403;28;20388;-69
2021/05/26 00:58:32;;;;;;;7.05;3.70;;;10.50;51.70;;;;;;5073325;28;20392;-69
2021/05/26 01:00:58;;;;;;;8.97;3.77;;;10.50;51.90;;;;;;5073499;28;20391;-69
2021/05/26 01:03:23;;;;;;;9.27;3.60;;;10.50;52.00;;;;;;5054827;28;20744;-69
2021/05/26 01:05:49;;;;;;;5.60;3.57;;;10.50;51.80;;;;;;5073256;28;20380;-70
2021/05/26 01:08:15;;;;;;;11.47;4.20;;;10.50;52.20;;;;;;5042351;28;20388;-70
2021/05/26 01:10:41;;;;;;;7.80;3.60;;;10.60;52.00;;;;;;5053272;28;20873;-70
2021/05/26 01:13:07;;;;;;;8.90;4.05;;;10.60;51.80;;;;;;5053116;28;20377;-70
2021/05/26 01:15:33;;;;;;;5.80;3.50;;;10.50;52.00;;;;;;5053169;28;20420;-69
2021/05/26 01:18:25;;;;;;;10.40;3.83;;;10.50;51.90;;;;;;5052636;28;20381;-70
2021/05/26 01:20:53;;;;;;;10.85;4.55;;;10.50;51.90;;;;;;5053520;28;20393;-71
2021/05/26 01:23:19;;;;;;;13.57;4.40;;;10.40;52.90;;;;;;5053042;28;20409;-70
2021/05/26 01:25:49;;;;;;;8.73;4.20;;;10.30;52.90;;;;;;5053245;28;20420;-69
2021/05/26 01:28:15;;;;;;;11.83;4.83;;;10.20;53.60;;;;;;5052521;28;20385;-70
2021/05/26 01:30:42;;;;;;;13.65;4.68;;;10.10;54.30;;;;;;5052731;28;20413;-70
2021/05/26 01:33:07;;;;;;;6.72;3.78;;;10.20;54.50;;;;;;5052166;28;20382;-69
2021/05/26 01:35:33;;;;;;;10.93;4.55;;;10.20;53.40;;;;;;5052471;28;20893;-70
2021/05/26 01:37:59;;;;;;;13.23;4.90;;;10.20;53.90;;;;;;5052464;28;20423;-70
2021/05/26 01:40:25;;;;;;;11.35;4.30;;;10.10;54.30;;;;;;5052597;28;20468;-70
2021/05/26 01:42:50;;;;;;;13.50;4.85;;;10.20;54.20;;;;;;5052786;28;20420;-70
2021/05/26 01:45:17;;;;;;;12.15;4.60;;;10.20;54.30;;;;;;5052255;28;20424;-70
2021/05/26 01:47:44;;;;;;;12.25;4.53;;;10.20;54.40;;;;;;5052409;28;20386;-69
2021/05/26 01:50:21;;;;;;;10.77;4.78;;;10.20;54.10;;;;;;5052120;28;20406;-69
2021/05/26 01:52:58;;;;;;;14.43;5.07;;;10.30;53.20;;;;;;5052028;28;20382;-69
2021/05/26 01:55:24;;;;;;;9.18;4.00;;;10.30;53.20;;;;;;5052239;28;20377;-69
2021/05/26 01:57:50;;;;;;;16.40;4.47;;;10.30;53.20;;;;;;5072167;28;20421;-69
2021/05/26 02:00:18;;;;;;;15.85;4.55;;;10.30;53.40;;;;;;5072079;28;20380;-69
2021/05/26 02:02:44;;;;;;;16.75;4.63;;;10.50;52.30;;;;;;5071985;28;20376;-70
2021/05/26 02:05:10;;;;;;;12.07;4.60;;;10.50;51.80;;;;;;5071962;28;20383;-70
2021/05/26 02:07:37;;;;;;;12.48;4.88;;;10.60;51.50;;;;;;5064804;28;20389;-69
2021/05/26 02:10:05;;;;;;;13.15;4.82;;;10.50;51.90;;;;;;5052151;28;20440;-70
2021/05/26 02:12:33;;;;;;;15.10;4.80;;;10.60;51.50;;;;;;5051775;28;20402;-70
2021/05/26 02:15:02;;;;;;;11.98;4.55;;;10.70;51.00;;;;;;5051984;28;20385;-70
2021/05/26 02:17:28;;;;;;;12.57;5.03;;;10.70;51.00;;;;;;5052065;28;20389;-70
2021/05/26 02:19:54;;;;;;;13.65;4.43;;;10.80;50.60;;;;;;5051992;28;20885;-70
2021/05/26 02:22:20;;;;;;;14.45;4.82;;;10.80;50.00;;;;;;5051796;28;20832;-70
2021/05/26 02:24:46;;;;;;;14.43;4.70;;;10.80;50.20;;;;;;5051475;28;20877;-70
2021/05/26 02:27:12;;;;;;;17.13;4.88;;;10.80;50.70;;;;;;5051462;28;20392;-70
2021/05/26 02:29:39;;;;;;;16.02;4.97;;;10.80;51.10;;;;;;5050595;28;20409;-70
2021/05/26 02:32:06;;;;;;;17.25;4.80;;;10.80;50.90;;;;;;5051362;28;20472;-70
2021/05/26 02:34:32;;;;;;;16.80;4.65;;;10.90;50.00;;;;;;5050933;28;20465;-70
2021/05/26 02:36:58;;;;;;;14.88;4.97;;;10.90;49.70;;;;;;5051606;28;20413;-70
2021/05/26 02:39:24;;;;;;;14.15;4.57;;;10.90;50.00;;;;;;5051460;28;20422;-70
2021/05/26 02:41:50;;;;;;;15.40;5.10;;;10.80;50.50;;;;;;5051577;28;20389;-70
2021/05/26 02:44:16;;;;;;;17.33;5.40;;;10.80;50.50;;;;;;5051214;28;20528;-70
2021/05/26 02:46:42;;;;;;;13.40;4.88;;;10.80;50.60;;;;;;5051631;28;20398;-70
2021/05/26 02:49:08;;;;;;;20.40;5.40;;;10.80;50.50;;;;;;5033556;28;20431;-70
2021/05/26 02:51:35;;;;;;;11.07;4.50;;;10.80;50.50;;;;;;5051324;28;20385;-70
2021/05/26 02:54:02;;;;;;;15.30;4.30;;;10.80;50.70;;;;;;5051313;28;20381;-70
2021/05/26 02:56:28;;;;;;;16.17;4.80;;;10.90;50.40;;;;;;5060195;28;20384;-70
2021/05/26 02:58:53;;;;;;;14.93;4.72;;;10.90;50.40;;;;;;5071128;28;20396;-71
2021/05/26 03:01:19;;;;;;;14.90;4.27;;;10.80;50.70;;;;;;5053407;28;20383;-70
2021/05/26 03:03:45;;;;;;;13.23;5.13;;;10.90;50.80;;;;;;5071132;28;20388;-69
2021/05/26 03:06:11;;;;;;;13.80;4.70;;;10.80;51.40;;;;;;5070961;28;20384;-70
2021/05/26 03:08:36;;;;;;;12.40;4.23;;;10.80;51.30;;;;;;5055146;28;20455;-70
2021/05/26 03:11:03;;;;;;;10.80;4.17;;;10.80;51.20;;;;;;5050846;28;20398;-70
2021/05/26 03:13:29;;;;;;;11.60;4.22;;;10.80;51.00;;;;;;5050456;28;20885;-70
2021/05/26 03:15:55;;;;;;;13.10;4.60;;;10.80;51.20;;;;;;5051008;28;20392;-70
2021/05/26 03:18:22;;;;;;;15.37;4.00;;;10.80;51.00;;;;;;5050944;28;20385;-70
2021/05/26 03:20:49;;;;;;;10.63;4.00;;;10.80;51.20;;;;;;5051014;28;20468;-70
2021/05/26 03:23:15;;;;;;;13.02;4.15;;;10.80;50.80;;;;;;5050387;28;20412;-70
2021/05/26 03:25:40;;;;;;;14.73;4.10;;;10.80;50.60;;;;;;5050936;28;20484;-70
2021/05/26 03:28:06;;;;;;;12.80;4.20;;;10.90;50.60;;;;;;5050768;28;20917;-70
2021/05/26 03:30:33;;;;;;;12.82;3.72;;;10.80;50.90;;;;;;5050515;28;20410;-70
2021/05/26 03:33:00;;;;;;;13.52;3.78;;;10.80;51.20;;;;;;5050739;28;20389;-71
2021/05/26 03:35:26;;;;;;;10.45;4.03;;;10.80;50.60;;;;;;5050551;28;20447;-70
2021/05/26 03:37:52;;;;;;;11.67;4.00;;;10.80;49.60;;;;;;5050517;28;20942;-69
2021/05/26 03:40:18;;;;;;;7.85;3.10;;;10.80;49.60;;;;;;5050070;28;20381;-69
2021/05/26 03:42:44;;;;;;;10.25;3.85;;;10.90;49.80;;;;;;5049896;28;20904;-69
2021/05/26 03:45:11;;;;;;;15.23;4.40;;;10.80;49.80;;;;;;5050214;28;20484;-69
2021/05/26 03:47:37;;;;;;;9.63;3.65;;;10.90;49.10;;;;;;5050590;28;20389;-69
2021/05/26 03:50:05;;;;;;;7.97;3.45;;;10.90;49.30;;;;;;5050268;28;20488;-69
2021/05/26 03:52:31;;;;;;;9.50;3.13;;;10.90;50.00;;;;;;5050034;28;20385;-70
2021/05/26 03:54:57;;;;;;;7.40;2.97;;;11.00;47.90;;;;;;5050355;28;20381;-70
2021/05/26 03:57:22;;;;;;;6.35;3.30;;;10.90;48.70;;;;;;5066661;28;20380;-70
2021/05/26 03:59:48;;;;;;;8.88;3.40;;;10.90;48.60;;;;;;5070495;28;20393;-70
2021/05/26 04:02:13;;;;;;;6.47;3.27;;;11.00;47.90;;;;;;5070250;28;20419;-70
2021/05/26 04:04:41;;;;;;;7.50;2.90;;;11.00;47.80;;;;;;5070524;28;20411;-69
2021/05/26 04:07:07;;;;;;;9.57;3.00;;;11.10;47.80;;;;;;5067217;28;20389;-70
2021/05/26 04:09:32;;;;;;;7.30;2.90;;;11.10;48.20;;;;;;5050186;28;20759;-69
2021/05/26 04:11:58;;;;;;;8.33;3.40;;;11.00;47.60;;;;;;5050595;28;20396;-70
2021/05/26 04:14:23;;;;;;;10.27;2.80;;;11.00;47.70;;;;;;5032060;28;20412;-69
2021/05/26 04:16:49;;;;;;;4.80;3.30;;;11.00;47.90;;;;;;5051539;28;20482;-70
2021/05/26 04:19:15;;;;;;;5.45;3.20;;;11.00;47.90;;;;;;5050491;28;20397;-69
2021/05/26 04:21:40;;;;;;;7.00;3.13;;;11.00;48.40;;;;;;5050322;28;20384;-70
2021/05/26 04:24:06;;;;;;;5.28;2.97;;;11.00;48.10;;;;;;5050533;28;20750;-70
2021/05/26 04:26:32;;;;;;;6.35;3.20;;;11.00;47.70;;;;;;5051103;28;20455;-70
2021/05/26 04:28:57;;;;;;;8.55;2.78;;;11.00;47.70;;;;;;5050174;28;20416;-69
2021/05/26 04:31:23;;;;;;;11.55;3.30;;;11.00;47.70;;;;;;5054296;28;20385;-70
2021/05/26 04:33:48;;;;;;;10.00;3.35;;;11.00;47.80;;;;;;5055953;28;20442;-70
2021/05/26 04:36:14;;;;;;;9.23;3.87;;;11.00;47.50;;;;;;5036055;28;20408;-70
2021/05/26 04:38:39;;;;;;;11.70;3.10;;;11.10;48.10;;;;;;5032811;28;20394;-70
2021/05/26 04:41:06;;;;;;;6.97;3.30;;;11.10;47.80;;;;;;5031147;28;20406;-70
2021/05/26 04:43:32;;;;;;;5.22;3.15;;;11.10;48.00;;;;;;5050354;28;20394;-70
2021/05/26 04:46:00;;;;;;;8.77;3.05;;;11.10;48.40;;;;;;5050426;28;20794;-70
2021/05/26 04:48:27;;;;;;;9.85;3.40;;;11.10;48.30;;;;;;5050200;28;20469;-70
2021/05/26 04:50:52;;;;;;;9.82;4.07;;;11.10;48.00;;;;;;5050619;28;20898;-70
2021/05/26 04:53:18;;;;;;;11.52;3.40;;;11.20;47.60;;;;;;5052056;28;20389;-70
2021/05/26 04:55:43;;;;;;;7.63;3.30;;;11.20;47.50;;;;;;5056592;28;20384;-70
2021/05/26 04:58:09;;;;;;;6.30;3.20;;;11.20;47.60;;;;;;5074209;28;20384;-72
2021/05/26 05:00:35;;;;;;;7.43;3.30;;;11.20;48.30;;;;;;5073671;28;20380;-69
2021/05/26 05:03:01;;;;;;;4.40;3.10;;;11.30;47.80;;;;;;5049351;28;20480;-71
2021/05/26 05:05:33;;;;;;;9.15;3.30;;;11.30;47.40;;;;;;5052883;28;20400;-70
2021/05/26 05:08:02;;;;;;;4.82;3.20;;;11.30;46.80;;;;;;5043510;28;20492;-71
2021/05/26 05:10:28;;;;;;;14.65;3.60;;;11.40;46.90;;;;;;5052859;28;20813;-70
2021/05/26 05:12:54;;;;;;;7.78;3.58;;;11.40;47.40;;;;;;5052089;28;20495;-70
2021/05/26 05:15:20;;;;;;;8.57;3.90;;;11.40;46.60;;;;;;5052480;28;20401;-70
2021/05/26 05:17:47;;;;;;;8.47;3.60;;;11.40;47.00;;;;;;5052895;28;20461;-69
2021/05/26 05:20:15;;;;;;;9.67;3.30;;;11.50;46.50;;;;;;5052674;28;20400;-70
2021/05/26 05:22:41;;;;;;;7.63;4.25;;;11.50;45.90;;;;;;5052200;28;20382;-70
2021/05/26 05:25:08;;;;;;;4.13;2.70;;;11.50;46.00;;;;;;5052282;28;20704;-70
2021/05/26 05:27:33;;;;;;;10.75;3.10;;;11.50;46.20;;;;;;5051878;28;20409;-70
2021/05/26 05:29:59;;;;;;;9.40;3.20;;;11.50;45.70;;;;;;5052281;28;20416;-71
2021/05/26 05:32:24;;;;;;;6.60;2.70;;;11.50;45.30;;;;;;5051768;28;20443;-71
2021/05/26 05:34:50;;;;;;;8.37;3.20;;;11.60;45.00;;;;;;5051720;28;20392;-71
2021/05/26 05:37:15;;;;;;;7.90;3.40;;;11.70;44.80;;;;;;5051645;28;20775;-70
2021/05/26 05:39:41;;;;;;;9.10;2.95;;;11.70;44.40;;;;;;5052047;28;20459;-70
2021/05/26 05:42:06;;;;;;;6.27;2.30;;;11.70;43.60;;;;;;5051624;28;20539;-71
2021/05/26 05:44:32;;;;;;;5.07;2.40;;;11.80;43.30;;;;;;5051681;28;20469;-71
2021/05/26 05:46:58;;;;;;;5.30;2.70;;;11.80;43.10;;;;;;5051824;28;20389;-71
2021/05/26 05:49:23;;;;;;;4.20;2.60;;;11.80;43.00;;;;;;5033391;28;20859;-68
2021/05/26 05:51:50;;;;;;;5.30;2.93;;;11.90;42.90;;;;;;5051952;28;20460;-70
2021/05/26 05:54:15;;;;;;;6.43;2.10;;;11.90;42.10;;;;;;5033748;28;20382;-69
2021/05/26 05:56:41;;;;;;;4.80;2.90;;;12.10;40.80;;;;;;5062446;28;20433;-69
2021/05/26 05:59:06;;;;;;;4.88;2.97;;;12.10;41.30;;;;;;5056071;28;20911;-70
2021/05/26 06:01:32;;;;;;;6.30;2.87;;;12.10;41.40;;;;;;5051484;28;20411;-69
2021/05/26 06:03:58;;;;;;;6.73;2.70;;;12.30;40.70;;;;;;5050959;28;20397;-72
2021/05/26 06:06:23;;;;;;;6.10;2.60;;;12.20;40.60;;;;;;5051247;28;20465;-69
2021/05/26 06:08:49;;;;;;;7.10;2.70;;;12.30;40.10;;;;;;5050597;28;20400;-69
2021/05/26 06:11:14;;;;;;;5.20;2.60;;;12.30;40.30;;;;;;5051527;28;20554;-70
2021/05/26 06:13:45;;;;;;;6.70;2.95;;;12.40;39.60;;;;;;5051263;28;20381;-70
2021/05/26 06:16:11;;;;;;;4.85;2.67;;;12.40;39.80;;;;;;5051517;28;20377;-71
2021/05/26 06:18:36;;;;;;;5.07;2.70;;;12.50;40.30;;;;;;5050686;28;20397;-70
2021/05/26 06:21:03;;;;;;;4.20;2.47;;;12.50;39.40;;;;;;5051262;28;20424;-70
2021/05/26 06:23:28;;;;;;;3.05;2.20;;;12.50;39.30;;;;;;5050944;28;20394;-70
2021/05/26 06:25:54;;;;;;;5.57;2.60;;;12.60;38.90;;;;;;5051259;28;20515;-70
2021/05/26 06:28:20;;;;;;;4.30;2.20;;;12.80;38.20;;;;;;5050809;28;20488;-70
2021/05/26 06:30:46;;;;;;;5.00;2.20;;;13.10;36.90;;;;;;5051984;28;20627;-70
2021/05/26 06:33:12;;;;;;;4.18;2.00;;;13.20;36.90;;;;;;5050795;28;20739;-71
2021/05/26 06:35:38;;;;;;;2.72;1.95;;;13.10;37.10;;;;;;5051429;28;20395;-71
2021/05/26 06:38:03;;;;;;;3.63;1.65;;;13.10;36.50;;;;;;5051679;28;20409;-71
2021/05/26 06:40:29;;;;;;;4.78;2.20;;;13.20;36.10;;;;;;5051328;28;20469;-71
2021/05/26 06:42:54;;;;;;;2.70;1.73;;;13.40;35.90;;;;;;5050828;28;20393;-69
2021/05/26 06:45:20;;;;;;;3.50;2.10;;;13.60;34.30;;;;;;5050517;28;20405;-69
2021/05/26 06:47:46;;;;;;;2.13;1.77;;;13.50;34.60;;;;;;5050401;28;20827;-70
2021/05/26 06:50:12;;;;;;;201.40;123.75;;;13.50;33.70;;;;;;5050538;28;20397;-70
2021/05/26 06:52:38;;;;;;;226.93;145.25;;;13.70;36.20;;;;;;5050786;28;20397;-70
2021/05/26 06:55:04;;;;;;;31.58;19.95;;;13.80;34.60;;;;;;5051079;28;20711;-71
2021/05/26 06:57:29;;;;;;;6.90;3.50;;;14.00;33.40;;;;;;5067557;28;20888;-69
2021/05/26 06:59:55;;;;;;;8.73;4.75;;;13.90;33.10;;;;;;5051289;28;20398;-70
2021/05/26 07:02:20;;;;;;;22.17;11.77;;;13.90;33.00;;;;;;5051576;28;20513;-71
2021/05/26 07:04:47;;;;;;;6.73;3.37;;;14.00;32.90;;;;;;5050694;28;20539;-69
2021/05/26 07:07:12;;;;;;;4.43;1.90;;;14.10;32.40;;;;;;5050330;28;20388;-71
2021/05/26 07:09:38;;;;;;;42.60;24.13;;;14.10;32.10;;;;;;5050293;28;20405;-71
2021/05/26 07:12:03;;;;;;;25.10;17.23;;;14.10;32.90;;;;;;5050569;28;20404;-71
2021/05/26 07:14:29;;;;;;;12.00;6.80;;;14.20;32.80;;;;;;5032491;28;20429;-71
2021/05/26 07:16:54;;;;;;;5.10;3.43;;;14.20;32.40;;;;;;5050295;28;20378;-71
2021/05/26 07:19:20;;;;;;;11.75;5.95;;;14.10;32.40;;;;;;5050643;28;20389;-70
2021/05/26 07:21:46;;;;;;;6.78;4.43;;;14.10;32.40;;;;;;5050190;28;20389;-69
2021/05/26 07:24:11;;;;;;;8.40;4.80;;;14.00;31.90;;;;;;5050805;28;20427;-70
2021/05/26 07:26:38;;;;;;;19.63;12.80;;;14.10;32.00;;;;;;5050488;28;20771;-70
2021/05/26 07:29:04;;;;;;;32.08;20.27;;;14.10;32.60;;;;;;5050043;28;20406;-72
2021/05/26 07:31:29;;;;;;;5.30;2.70;;;14.30;32.80;;;;;;5050238;28;20387;-71
2021/05/26 07:33:55;;;;;;;17.85;12.43;;;14.40;31.10;;;;;;5050115;28;20393;-70
2021/05/26 07:36:21;;;;;;;2.10;1.60;;;14.50;30.60;;;;;;5050177;28;20886;-70
2021/05/26 07:38:46;;;;;;;5.50;2.90;;;14.60;29.10;;;;;;5042477;28;20402;-70
2021/05/26 07:41:12;;;;;;;3.45;2.05;;;14.70;29.70;;;;;;5049406;28;20461;-69
2021/05/26 07:43:38;;;;;;;3.03;1.55;;;14.70;29.40;;;;;;5053982;23;20431;-76
2021/05/26 07:46:05;;;;;;;2.22;1.58;;;14.70;29.70;;;;;;5041387;28;20394;-77
2021/05/26 07:48:31;;;;;;;6.57;1.77;;;14.80;29.30;;;;;;5021544;28;20397;-85
2021/05/26 07:50:57;;;;;;;3.60;1.40;;;15.00;28.70;;;;;;5022466;28;20411;-80
2021/05/26 07:53:23;;;;;;;3.97;1.50;;;15.10;28.30;;;;;;5056055;28;20426;-75
2021/05/26 07:55:48;;;;;;;4.60;1.20;;;15.50;27.90;;;;;;5060294;28;20385;-82
2021/05/26 07:58:14;;;;;;;2.90;2.20;;;15.60;26.00;;;;;;5040910;28;20404;-81
2021/05/26 08:00:39;;;;;;;2.50;1.35;;;15.60;25.90;;;;;;5022068;28;20414;-83
2021/05/26 08:03:06;;;;;;;1.50;1.10;;;15.80;25.70;;;;;;5038026;28;20397;-82
2021/05/26 08:05:32;;;;;;;1.90;1.20;;;15.90;25.40;;;;;;5039141;28;20462;-83
2021/05/26 08:07:57;;;;;;;3.22;1.35;;;15.90;25.00;;;;;;5030874;28;20456;-80
2021/05/26 08:10:23;;;;;;;1.60;1.20;;;15.70;25.10;;;;;;5057411;28;20401;-80
2021/05/26 08:12:48;;;;;;;1.48;1.23;;;15.80;25.90;;;;;;5056309;28;20440;-81
2021/05/26 08:15:14;;;;;;;1.65;1.20;;;15.70;26.10;;;;;;5060258;28;20397;-79
2021/05/26 08:17:42;;;;;;;2.20;1.30;;;15.90;25.50;;;;;;5045079;28;20378;-79
2021/05/26 08:20:08;;;;;;;2.00;1.23;;;15.80;24.90;;;;;;5062824;28;20400;-79
2021/05/26 08:22:43;;;;;;;4.70;1.40;;;15.60;25.20;;;;;;5045718;28;20436;-78
2021/05/26 08:25:09;;;;;;;1.35;1.10;;;15.30;26.20;;;;;;5066697;28;20851;-78
2021/05/26 08:27:35;;;;;;;3.95;1.10;;;15.00;26.20;;;;;;5058345;28;20397;-78
2021/05/26 08:30:01;;;;;;;2.03;1.20;;;14.80;26.70;;;;;;5052032;28;20421;-79
2021/05/26 08:32:27;;;;;;;4.68;1.30;;;14.90;26.90;;;;;;5072004;28;20396;-79
2021/05/26 08:34:55;;;;;;;1.90;1.70;;;15.30;26.10;;;;;;5069496;28;20398;-79
2021/05/26 08:37:21;;;;;;;3.50;1.33;;;15.80;25.30;;;;;;5056734;28;20389;-82
2021/05/26 08:39:47;;;;;;;3.10;1.70;;;16.20;23.50;;;;;;5055482;28;20408;-79
2021/05/26 08:42:15;;;;;;;1.40;1.00;;;16.60;22.40;;;;;;5070766;28;20377;-80
2021/05/26 08:44:41;;;;;;;1.30;1.20;;;16.80;21.70;;;;;;5066532;28;20395;-81
2021/05/26 08:47:13;;;;;;;1.30;1.20;;;16.60;22.20;;;;;;5051768;28;20390;-79
2021/05/26 08:49:46;;;;;;;1.80;1.10;;;16.20;22.30;;;;;;5040116;28;20913;-79
2021/05/26 08:52:15;;;;;;;1.70;1.20;;;15.90;22.80;;;;;;5075568;28;20409;-81
2021/05/26 08:54:43;;;;;;;3.85;1.40;;;15.60;23.90;;;;;;5053663;28;20408;-78
2021/05/26 08:57:09;;;;;;;1.40;1.13;;;15.50;24.50;;;;;;5072316;28;20406;-80
2021/05/26 08:59:34;;;;;;;1.63;1.40;;;15.80;24.40;;;;;;5062551;28;20406;-83
2021/05/26 09:02:01;;;;;;;2.70;1.60;;;16.00;23.50;;;;;;5067443;28;20389;-82
2021/05/26 09:04:37;;;;;;;4.47;1.40;;;16.40;23.00;;;;;;5068343;28;20404;-80
2021/05/26 09:07:10;;;;;;;3.73;1.60;;;17.10;21.80;;;;;;5056366;28;20389;-82
2021/05/26 09:09:49;;;;;;;2.20;1.20;;;17.40;19.10;;;;;;5075213;28;20423;-80
2021/05/26 09:12:24;;;;;;;4.00;1.50;;;17.40;19.20;;;;;;5075985;28;20373;-80
2021/05/26 09:14:49;;;;;;;2.70;1.70;;;17.30;20.10;;;;;;5074504;28;20393;-80
2021/05/26 09:17:15;;;;;;;3.00;1.90;;;16.90;20.00;;;;;;5073554;28;20403;-79
2021/05/26 09:19:41;;;;;;;3.50;1.60;;;16.60;20.60;;;;;;5067257;28;20397;-79
2021/05/26 09:22:14;;;;;;;2.00;1.50;;;16.40;20.90;;;;;;5062843;28;20405;-82
2021/05/26 09:24:40;;;;;;;1.88;1.50;;;16.40;20.90;;;;;;5047941;28;20401;-82
2021/05/26 09:27:08;;;;;;;2.05;1.83;;;16.30;21.50;;;;;;5040495;28;20403;-84
2021/05/26 09:29:43;;;;;;;3.08;1.50;;;16.20;21.60;;;;;;5037805;28;20421;-81
2021/05/26 09:32:21;;;;;;;2.40;2.00;;;16.10;22.40;;;;;;5056630;28;20378;-83
2021/05/26 09:34:54;;;;;;;2.00;1.80;;;16.20;22.90;;;;;;5062516;28;20386;-83
2021/05/26 09:37:29;;;;;;;2.50;1.80;;;16.60;21.50;;;;;;5037175;28;20907;-80
2021/05/26 09:39:57;;;;;;;2.00;1.58;;;16.80;20.90;;;;;;5055826;28;20751;-84
2021/05/26 09:42:36;;;;;;;5.13;1.80;;;16.70;19.50;;;;;;5057753;28;20387;-84
2021/05/26 09:45:27;;;;;;;4.07;1.70;;;16.70;20.30;;;;;;5031533;28;20807;-83
2021/05/26 09:47:54;;;;;;;2.70;1.40;;;17.00;20.00;;;;;;5036725;28;20410;-82
2021/05/26 09:50:23;;;;;;;3.27;1.50;;;16.90;19.40;;;;;;5051457;28;20470;-79
2021/05/26 09:53:08;;;;;;;1.77;1.33;;;16.90;19.80;;;;;;5046698;28;20387;-82
2021/05/26 09:55:37;;;;;;;5.53;1.75;;;16.90;19.80;;;;;;5051258;28;20400;-81
2021/05/26 09:58:04;;;;;;;1.83;1.60;;;16.90;20.70;;;;;;5061943;28;20386;-80
2021/05/26 10:00:30;;;;;;;1.70;1.60;;;17.10;20.00;;;;;;5063192;28;20405;-75
2021/05/26 10:02:56;;;;;;;3.05;2.08;;;17.30;19.90;;;;;;5052231;28;20393;-74
2021/05/26 10:05:24;;;;;;;3.08;1.80;;;17.70;19.60;;;;;;5051083;28;20401;-76
2021/05/26 10:08:00;;;;;;;3.00;1.50;;;17.90;18.80;;;;;;5034040;28;20897;-75
2021/05/26 10:10:28;;;;;;;3.00;1.30;;;18.00;17.70;;;;;;5052539;28;20405;-75
2021/05/26 10:12:58;;;;;;;2.83;1.70;;;17.90;17.80;;;;;;5053227;28;20522;-77
2021/05/26 10:15:26;;;;;;;1.88;1.50;;;17.80;18.00;;;;;;5052441;28;20397;-75
2021/05/26 10:17:53;;;;;;;2.20;1.50;;;17.80;18.30;;;;;;5052648;28;20382;-76
2021/05/26 10:20:22;;;;;;;1.20;1.10;;;17.90;17.90;;;;;;5052313;28;20409;-74
2021/05/26 10:22:50;;;;;;;3.40;1.65;;;17.90;18.00;;;;;;5051574;28;20393;-75
2021/05/26 10:25:16;;;;;;;3.10;1.40;;;17.80;18.30;;;;;;5052248;28;20416;-76
2021/05/26 10:27:49;;;;;;;3.50;1.20;;;17.80;18.30;;;;;;5052238;28;20396;-75
2021/05/26 10:30:17;;;;;;;3.50;1.23;;;18.20;17.30;;;;;;5033756;28;20394;-75
2021/05/26 10:32:54;;;;;;;2.00;1.50;;;18.30;16.80;;;;;;5051707;28;20802;-76
2021/05/26 10:35:24;;;;;;;7.50;4.10;;;17.90;17.50;;;;;;5052287;28;20866;-76
2021/05/26 10:37:57;;;;;;;1.60;1.20;;;17.60;18.70;;;;;;5052241;28;20386;-75
2021/05/26 10:40:30;;;;;;;2.50;1.50;;;17.50;19.50;;;;;;5052018;28;20404;-76
2021/05/26 10:43:18;;;;;;;2.97;1.30;;;17.50;19.20;;;;;;5051506;28;20975;-75
2021/05/26 10:45:45;;;;;;;2.40;1.33;;;17.40;19.50;;;;;;5051677;28;20765;-75
2021/05/26 10:48:11;;;;;;;3.20;1.33;;;17.20;19.80;;;;;;5051825;28;20393;-75
2021/05/26 10:50:55;;;;;;;4.00;1.70;;;17.30;20.00;;;;;;5050583;28;20445;-75
2021/05/26 10:53:23;;;;;;;2.20;1.67;;;17.50;19.30;;;;;;5051172;28;20442;-75
2021/05/26 10:55:53;;;;;;;1.92;1.83;;;17.80;19.10;;;;;;5036654;28;20414;-75
2021/05/26 10:58:20;;;;;;;4.82;2.08;;;17.90;18.20;;;;;;5071218;28;20384;-76
2021/05/26 11:00:58;;;;;;;1.80;1.70;;;17.80;18.30;;;;;;5072178;28;20983;-74
2021/05/26 11:03:30;;;;;;;2.30;1.30;;;17.50;18.70;;;;;;5051171;28;20411;-75
2021/05/26 11:06:01;;;;;;;2.13;1.50;;;17.60;19.10;;;;;;5051924;28;20378;-75
2021/05/26 11:08:32;;;;;;;2.70;1.70;;;17.50;19.20;;;;;;5051282;28;20381;-76
2021/05/26 11:11:17;;;;;;;1.60;1.40;;;17.50;19.20;;;;;;5051419;28;20472;-75
2021/05/26 11:14:09;;;;;;;1.60;1.40;;;17.70;18.40;;;;;;5051482;28;20475;-78
2021/05/26 11:16:41;;;;;;;3.00;1.47;;;17.50;18.90;;;;;;5035522;28;20432;-77
2021/05/26 11:19:14;;;;;;;2.05;1.70;;;17.50;19.20;;;;;;5051261;28;20457;-75
2021/05/26 11:21:54;;;;;;;3.95;1.50;;;17.40;19.30;;;;;;5051161;28;20391;-76
2021/05/26 11:24:21;;;;;;;3.10;1.48;;;17.30;19.50;;;;;;5051186;28;20379;-78
2021/05/26 11:26:47;;;;;;;3.58;1.50;;;17.20;19.90;;;;;;5051228;28;20381;-75
2021/05/26 11:29:12;;;;;;;1.98;1.80;;;17.20;20.20;;;;;;5050985;28;20401;-75
2021/05/26 11:31:39;;;;;;;3.30;1.33;;;17.60;20.00;;;;;;5051471;28;20744;-76
2021/05/26 11:34:07;;;;;;;6.60;2.00;;;18.30;18.60;;;;;;5051013;28;20746;-75
2021/05/26 11:36:44;;;;;;;3.28;1.50;;;18.60;17.50;;;;;;5033401;28;20822;-74
2021/05/26 11:39:17;;;;;;;3.20;1.40;;;18.90;16.90;;;;;;5059250;28;20448;-82
2021/05/26 11:41:43;;;;;;;3.08;1.85;;;19.20;15.60;;;;;;5070475;28;20404;-84
2021/05/26 11:44:09;;;;;;;4.05;1.70;;;19.20;16.50;;;;;;5070349;28;20385;-80
2021/05/26 11:46:35;;;;;;;4.05;1.92;;;18.90;17.40;;;;;;5074893;28;20500;-82
2021/05/26 11:49:13;;;;;;;3.65;1.52;;;18.90;17.30;;;;;;5050330;28;20878;-85
2021/05/26 11:51:39;;;;;;;1.70;1.60;;;18.60;17.60;;;;;;5061166;28;20832;-83
2021/05/26 11:54:06;;;;;;;2.50;1.40;;;18.50;17.60;;;;;;5059949;28;20396;-82
2021/05/26 11:56:35;;;;;;;2.17;1.50;;;18.50;16.90;;;;;;5059311;28;20424;-83
2021/05/26 11:59:00;;;;;;;3.90;1.52;;;18.60;16.80;;;;;;5060926;28;20393;-83
2021/05/26 12:01:30;;;;;;;1.80;1.60;;;19.00;16.90;;;;;;5062305;28;20404;-82
2021/05/26 12:03:56;;;;;;;3.30;1.30;;;18.80;15.90;;;;;;5046186;28;20382;-82
2021/05/26 12:06:23;;;;;;;1.77;1.60;;;18.70;16.80;;;;;;5064821;28;20461;-83
2021/05/26 12:08:49;;;;;;;1.80;1.50;;;18.90;16.10;;;;;;5066862;28;20377;-83
2021/05/26 12:11:18;;;;;;;1.97;1.80;;;19.30;16.60;;;;;;5068094;28;20381;-84
2021/05/26 12:13:48;;;;;;;4.50;1.90;;;19.80;15.50;;;;;;5049806;28;20457;-84
2021/05/26 12:16:16;;;;;;;2.25;1.73;;;20.40;14.70;;;;;;5053943;28;20452;-80
2021/05/26 12:18:55;;;;;;;4.30;1.90;;;20.60;13.40;;;;;;5070860;28;20419;-80
2021/05/26 12:21:27;;;;;;;1.70;1.60;;;20.60;13.10;;;;;;5066451;28;20385;-78
2021/05/26 12:24:14;;;;;;;3.80;1.65;;;20.60;13.40;;;;;;5065628;28;20441;-80
2021/05/26 12:26:45;;;;;;;2.40;1.80;;;19.90;13.60;;;;;;5051733;28;20386;-79
2021/05/26 12:29:12;;;;;;;4.93;1.65;;;19.40;15.20;;;;;;5070891;28;20404;-77
2021/05/26 12:31:39;;;;;;;6.00;2.40;;;19.00;16.40;;;;;;5052271;28;20419;-77
2021/05/26 12:34:16;;;;;;;3.10;2.05;;;19.00;16.80;;;;;;5071206;28;20385;-79
2021/05/26 12:36:52;;;;;;;2.35;1.70;;;18.80;16.70;;;;;;5069966;28;20384;-79
2021/05/26 12:39:19;;;;;;;5.82;2.00;;;18.00;18.00;;;;;;5067825;28;20432;-79
2021/05/26 12:41:48;;;;;;;3.40;1.88;;;17.80;19.00;;;;;;5074711;28;20923;-78
2021/05/26 12:44:14;;;;;;;2.60;2.40;;;17.70;19.70;;;;;;5074580;28;20389;-78